sensor_id;sensor_type;location;lat;lon;timestamp;temperature;humidity
22917;DHT22;11624;53.250;7.456;2023-04-23T00:01:09;15.11;58.25
22917;DHT22;11624;53.250;7.456;2023-04-23T00:03:40;15.04;58.22
22917;DHT22;11624;53.250;7.456;2023-04-23T00:06:10;15.02;58.22
22917;DHT22;11624;53.250;7.456;2023-04-23T00:08:40;14.97;58.35
22917;DHT22;11624;53.250;7.456;2023-04-23T00:11:09;14.98;58.34
22917;DHT22;11624;53.250;7.456;2023-04-23T00:13:38;14.93;58.53
22917;DHT22;11624;53.250;7.456;2023-04-23T00:16:07;14.98;58.35
22917;DHT22;11624;53.250;7.456;2023-04-23T00:18:36;14.99;58.27
22917;DHT22;11624;53.250;7.456;2023-04-23T00:21:04;15.06;58.08
22917;DHT22;11624;53.250;7.456;2023-04-23T00:23:34;15.08;57.96
22917;DHT22;11624;53.250;7.456;2023-04-23T00:26:04;15.11;57.87
22917;DHT22;11624;53.250;7.456;2023-04-23T00:28:32;15.13;57.80
22917;DHT22;11624;53.250;7.456;2023-04-23T00:31:00;15.13;57.78
22917;DHT22;11624;53.250;7.456;2023-04-23T00:33:28;15.12;57.72
22917;DHT22;11624;53.250;7.456;2023-04-23T00:35:56;15.13;57.64
22917;DHT22;11624;53.250;7.456;2023-04-23T00:38:24;15.10;57.72
22917;DHT22;11624;53.250;7.456;2023-04-23T00:40:53;15.07;57.74
22917;DHT22;11624;53.250;7.456;2023-04-23T00:43:22;15.04;57.77
22917;DHT22;11624;53.250;7.456;2023-04-23T00:45:50;15.03;57.75
22917;DHT22;11624;53.250;7.456;2023-04-23T00:48:19;15.06;57.65
22917;DHT22;11624;53.250;7.456;2023-04-23T00:50:47;15.06;57.66
22917;DHT22;11624;53.250;7.456;2023-04-23T00:53:15;15.04;57.58
22917;DHT22;11624;53.250;7.456;2023-04-23T00:55:44;15.00;57.63
22917;DHT22;11624;53.250;7.456;2023-04-23T00:58:12;15.00;57.60
22917;DHT22;11624;53.250;7.456;2023-04-23T01:00:44;14.98;57.52
22917;DHT22;11624;53.250;7.456;2023-04-23T01:03:14;14.99;57.61
22917;DHT22;11624;53.250;7.456;2023-04-23T01:05:44;14.99;57.58
22917;DHT22;11624;53.250;7.456;2023-04-23T01:08:15;14.97;57.55
22917;DHT22;11624;53.250;7.456;2023-04-23T01:10:44;14.99;57.66
22917;DHT22;11624;53.250;7.456;2023-04-23T01:13:14;15.03;57.55
22917;DHT22;11624;53.250;7.456;2023-04-23T01:15:44;15.09;57.42
22917;DHT22;11624;53.250;7.456;2023-04-23T01:18:14;15.09;57.42
22917;DHT22;11624;53.250;7.456;2023-04-23T01:20:44;15.09;57.46
22917;DHT22;11624;53.250;7.456;2023-04-23T01:23:14;15.13;57.39
22917;DHT22;11624;53.250;7.456;2023-04-23T01:25:42;15.08;57.54
22917;DHT22;11624;53.250;7.456;2023-04-23T01:28:11;15.08;57.45
22917;DHT22;11624;53.250;7.456;2023-04-23T01:30:41;15.09;57.36
22917;DHT22;11624;53.250;7.456;2023-04-23T01:33:10;15.08;57.39
22917;DHT22;11624;53.250;7.456;2023-04-23T01:35:39;14.99;57.70
22917;DHT22;11624;53.250;7.456;2023-04-23T01:38:09;14.91;57.99
22917;DHT22;11624;53.250;7.456;2023-04-23T01:40:39;14.84;58.20
22917;DHT22;11624;53.250;7.456;2023-04-23T01:43:07;14.88;58.07
22917;DHT22;11624;53.250;7.456;2023-04-23T01:45:35;14.86;58.13
22917;DHT22;11624;53.250;7.456;2023-04-23T01:48:04;14.86;58.04
22917;DHT22;11624;53.250;7.456;2023-04-23T01:50:32;14.66;58.78
22917;DHT22;11624;53.250;7.456;2023-04-23T01:53:00;14.69;58.79
22917;DHT22;11624;53.250;7.456;2023-04-23T01:55:29;14.62;59.13
22917;DHT22;11624;53.250;7.456;2023-04-23T01:57:59;14.48;59.50
22917;DHT22;11624;53.250;7.456;2023-04-23T02:00:27;14.49;59.51
22917;DHT22;11624;53.250;7.456;2023-04-23T02:02:55;14.38;59.90
22917;DHT22;11624;53.250;7.456;2023-04-23T02:05:24;14.37;60.01
22917;DHT22;11624;53.250;7.456;2023-04-23T02:07:56;14.38;59.83
22917;DHT22;11624;53.250;7.456;2023-04-23T02:10:24;14.36;59.87
22917;DHT22;11624;53.250;7.456;2023-04-23T02:12:52;14.36;59.91
22917;DHT22;11624;53.250;7.456;2023-04-23T02:15:21;14.36;59.88
22917;DHT22;11624;53.250;7.456;2023-04-23T02:17:50;14.36;60.10
22917;DHT22;11624;53.250;7.456;2023-04-23T02:20:19;14.30;60.40
22917;DHT22;11624;53.250;7.456;2023-04-23T02:22:48;14.44;60.04
22917;DHT22;11624;53.250;7.456;2023-04-23T02:25:17;14.39;60.31
22917;DHT22;11624;53.250;7.456;2023-04-23T02:27:47;14.48;59.93
22917;DHT22;11624;53.250;7.456;2023-04-23T02:30:16;14.49;59.94
22917;DHT22;11624;53.250;7.456;2023-04-23T02:32:45;14.40;60.11
22917;DHT22;11624;53.250;7.456;2023-04-23T02:35:13;14.43;60.01
22917;DHT22;11624;53.250;7.456;2023-04-23T02:37:41;14.42;59.99
22917;DHT22;11624;53.250;7.456;2023-04-23T02:40:10;14.32;60.44
22917;DHT22;11624;53.250;7.456;2023-04-23T02:42:38;14.42;60.07
22917;DHT22;11624;53.250;7.456;2023-04-23T02:45:11;14.45;59.86
22917;DHT22;11624;53.250;7.456;2023-04-23T02:47:39;14.44;59.90
22917;DHT22;11624;53.250;7.456;2023-04-23T02:50:09;14.43;59.92
22917;DHT22;11624;53.250;7.456;2023-04-23T02:52:37;14.42;59.92
22917;DHT22;11624;53.250;7.456;2023-04-23T02:55:06;14.41;59.99
22917;DHT22;11624;53.250;7.456;2023-04-23T02:57:35;14.38;60.24
22917;DHT22;11624;53.250;7.456;2023-04-23T03:00:04;14.41;60.22
22917;DHT22;11624;53.250;7.456;2023-04-23T03:02:39;14.38;60.31
22917;DHT22;11624;53.250;7.456;2023-04-23T03:05:09;14.44;60.14
22917;DHT22;11624;53.250;7.456;2023-04-23T03:07:47;14.48;59.61
22917;DHT22;11624;53.250;7.456;2023-04-23T03:10:16;14.45;59.89
22917;DHT22;11624;53.250;7.456;2023-04-23T03:12:44;14.45;59.79
22917;DHT22;11624;53.250;7.456;2023-04-23T03:15:13;14.48;59.69
22917;DHT22;11624;53.250;7.456;2023-04-23T03:17:42;14.50;59.44
22917;DHT22;11624;53.250;7.456;2023-04-23T03:20:11;14.51;59.41
22917;DHT22;11624;53.250;7.456;2023-04-23T03:22:40;14.51;59.31
22917;DHT22;11624;53.250;7.456;2023-04-23T03:25:08;14.49;59.31
22917;DHT22;11624;53.250;7.456;2023-04-23T03:27:37;14.48;59.34
22917;DHT22;11624;53.250;7.456;2023-04-23T03:30:07;14.49;59.22
22917;DHT22;11624;53.250;7.456;2023-04-23T03:32:35;14.51;59.19
22917;DHT22;11624;53.250;7.456;2023-04-23T03:35:04;14.51;59.11
22917;DHT22;11624;53.250;7.456;2023-04-23T03:37:36;14.51;58.85
22917;DHT22;11624;53.250;7.456;2023-04-23T03:40:06;14.50;58.62
22917;DHT22;11624;53.250;7.456;2023-04-23T03:42:38;14.44;58.58
22917;DHT22;11624;53.250;7.456;2023-04-23T03:45:08;14.35;58.64
22917;DHT22;11624;53.250;7.456;2023-04-23T03:47:37;14.25;58.83
22917;DHT22;11624;53.250;7.456;2023-04-23T03:50:06;14.22;58.80
22917;DHT22;11624;53.250;7.456;2023-04-23T03:52:35;14.18;58.86
22917;DHT22;11624;53.250;7.456;2023-04-23T03:55:06;14.09;58.97
22917;DHT22;11624;53.250;7.456;2023-04-23T03:57:40;14.05;59.12
22917;DHT22;11624;53.250;7.456;2023-04-23T04:00:37;13.96;59.32
22917;DHT22;11624;53.250;7.456;2023-04-23T04:03:05;13.98;59.12
22917;DHT22;11624;53.250;7.456;2023-04-23T04:05:34;13.92;59.22
22917;DHT22;11624;53.250;7.456;2023-04-23T04:08:03;13.84;59.64
22917;DHT22;11624;53.250;7.456;2023-04-23T04:10:33;13.81;59.67
22917;DHT22;11624;53.250;7.456;2023-04-23T04:13:02;13.81;59.63
22917;DHT22;11624;53.250;7.456;2023-04-23T04:15:31;13.79;59.61
22917;DHT22;11624;53.250;7.456;2023-04-23T04:17:59;13.81;59.64
22917;DHT22;11624;53.250;7.456;2023-04-23T04:20:27;13.80;59.57
22917;DHT22;11624;53.250;7.456;2023-04-23T04:22:55;13.76;59.72
22917;DHT22;11624;53.250;7.456;2023-04-23T04:25:23;13.71;59.88
22917;DHT22;11624;53.250;7.456;2023-04-23T04:27:55;13.71;59.87
22917;DHT22;11624;53.250;7.456;2023-04-23T04:30:24;13.73;59.88
22917;DHT22;11624;53.250;7.456;2023-04-23T04:32:52;13.75;59.72
22917;DHT22;11624;53.250;7.456;2023-04-23T04:35:20;13.74;59.61
22917;DHT22;11624;53.250;7.456;2023-04-23T04:37:48;13.75;59.54
22917;DHT22;11624;53.250;7.456;2023-04-23T04:40:19;13.71;59.43
22917;DHT22;11624;53.250;7.456;2023-04-23T04:42:47;13.70;59.45
22917;DHT22;11624;53.250;7.456;2023-04-23T04:45:18;13.69;59.41
22917;DHT22;11624;53.250;7.456;2023-04-23T04:47:46;13.68;59.37
22917;DHT22;11624;53.250;7.456;2023-04-23T04:50:14;13.67;59.34
22917;DHT22;11624;53.250;7.456;2023-04-23T04:52:42;13.64;59.28
22917;DHT22;11624;53.250;7.456;2023-04-23T04:55:11;13.59;59.30
22917;DHT22;11624;53.250;7.456;2023-04-23T04:57:39;13.58;59.41
22917;DHT22;11624;53.250;7.456;2023-04-23T05:00:23;13.52;59.25
22917;DHT22;11624;53.250;7.456;2023-04-23T05:02:53;13.51;59.55
22917;DHT22;11624;53.250;7.456;2023-04-23T05:05:23;13.48;59.82
22917;DHT22;11624;53.250;7.456;2023-04-23T05:07:51;13.44;60.25
22917;DHT22;11624;53.250;7.456;2023-04-23T05:10:20;13.39;60.67
22917;DHT22;11624;53.250;7.456;2023-04-23T05:12:48;13.36;60.88
22917;DHT22;11624;53.250;7.456;2023-04-23T05:15:17;13.34;61.18
22917;DHT22;11624;53.250;7.456;2023-04-23T05:17:47;13.33;61.28
22917;DHT22;11624;53.250;7.456;2023-04-23T05:20:16;13.38;61.25
22917;DHT22;11624;53.250;7.456;2023-04-23T05:22:44;13.39;61.39
22917;DHT22;11624;53.250;7.456;2023-04-23T05:25:12;13.39;61.45
22917;DHT22;11624;53.250;7.456;2023-04-23T05:27:40;13.40;61.60
22917;DHT22;11624;53.250;7.456;2023-04-23T05:30:10;13.40;61.81
22917;DHT22;11624;53.250;7.456;2023-04-23T05:32:38;13.39;61.95
22917;DHT22;11624;53.250;7.456;2023-04-23T05:35:08;13.39;62.04
22917;DHT22;11624;53.250;7.456;2023-04-23T05:37:36;13.44;62.10
22917;DHT22;11624;53.250;7.456;2023-04-23T05:40:05;13.47;62.26
22917;DHT22;11624;53.250;7.456;2023-04-23T05:42:34;13.46;62.38
22917;DHT22;11624;53.250;7.456;2023-04-23T05:45:03;13.51;62.37
22917;DHT22;11624;53.250;7.456;2023-04-23T05:47:34;13.63;62.31
22917;DHT22;11624;53.250;7.456;2023-04-23T05:50:03;13.74;62.14
22917;DHT22;11624;53.250;7.456;2023-04-23T05:52:33;13.60;62.22
22917;DHT22;11624;53.250;7.456;2023-04-23T05:55:03;13.53;62.47
22917;DHT22;11624;53.250;7.456;2023-04-23T05:57:32;13.59;62.57
22917;DHT22;11624;53.250;7.456;2023-04-23T06:00:00;13.69;62.54
22917;DHT22;11624;53.250;7.456;2023-04-23T06:02:37;13.74;62.59
22917;DHT22;11624;53.250;7.456;2023-04-23T06:05:07;13.77;62.60
22917;DHT22;11624;53.250;7.456;2023-04-23T06:07:37;13.85;62.51
22917;DHT22;11624;53.250;7.456;2023-04-23T06:10:06;14.01;62.36
22917;DHT22;11624;53.250;7.456;2023-04-23T06:12:34;14.09;62.34
22917;DHT22;11624;53.250;7.456;2023-04-23T06:15:07;14.20;62.25
22917;DHT22;11624;53.250;7.456;2023-04-23T06:17:36;14.21;62.40
22917;DHT22;11624;53.250;7.456;2023-04-23T06:20:05;14.09;62.61
22917;DHT22;11624;53.250;7.456;2023-04-23T06:22:34;14.09;62.98
22917;DHT22;11624;53.250;7.456;2023-04-23T06:25:04;14.25;62.80
22917;DHT22;11624;53.250;7.456;2023-04-23T06:27:33;14.35;62.78
22917;DHT22;11624;53.250;7.456;2023-04-23T06:30:08;14.28;63.05
22917;DHT22;11624;53.250;7.456;2023-04-23T06:32:37;14.44;62.89
22917;DHT22;11624;53.250;7.456;2023-04-23T06:35:06;14.52;63.11
22917;DHT22;11624;53.250;7.456;2023-04-23T06:37:34;14.52;63.06
22917;DHT22;11624;53.250;7.456;2023-04-23T06:40:05;14.62;63.23
22917;DHT22;11624;53.250;7.456;2023-04-23T06:42:33;14.85;62.85
22917;DHT22;11624;53.250;7.456;2023-04-23T06:45:30;15.03;62.64
22917;DHT22;11624;53.250;7.456;2023-04-23T06:47:59;15.17;62.25
22917;DHT22;11624;53.250;7.456;2023-04-23T06:50:27;15.22;62.26
22917;DHT22;11624;53.250;7.456;2023-04-23T06:52:55;15.24;62.04
22917;DHT22;11624;53.250;7.456;2023-04-23T06:55:24;15.25;61.88
22917;DHT22;11624;53.250;7.456;2023-04-23T06:57:54;15.28;61.92
22917;DHT22;11624;53.250;7.456;2023-04-23T07:00:23;15.39;61.87
22917;DHT22;11624;53.250;7.456;2023-04-23T07:02:51;15.44;61.96
22917;DHT22;11624;53.250;7.456;2023-04-23T07:05:19;15.51;61.90
22917;DHT22;11624;53.250;7.456;2023-04-23T07:07:47;15.53;61.76
22917;DHT22;11624;53.250;7.456;2023-04-23T07:10:16;15.73;61.81
22917;DHT22;11624;53.250;7.456;2023-04-23T07:12:45;15.91;61.69
22917;DHT22;11624;53.250;7.456;2023-04-23T07:15:13;16.01;61.25
22917;DHT22;11624;53.250;7.456;2023-04-23T07:17:41;16.14;61.02
22917;DHT22;11624;53.250;7.456;2023-04-23T07:20:10;16.26;60.86
22917;DHT22;11624;53.250;7.456;2023-04-23T07:22:38;16.35;60.47
22917;DHT22;11624;53.250;7.456;2023-04-23T07:25:07;16.56;60.54
22917;DHT22;11624;53.250;7.456;2023-04-23T07:27:35;16.95;60.43
22917;DHT22;11624;53.250;7.456;2023-04-23T07:30:06;17.39;59.02
22917;DHT22;11624;53.250;7.456;2023-04-23T07:32:34;17.48;58.13
22917;DHT22;11624;53.250;7.456;2023-04-23T07:35:03;17.75;58.86
22917;DHT22;11624;53.250;7.456;2023-04-23T07:37:32;18.04;57.80
22917;DHT22;11624;53.250;7.456;2023-04-23T07:40:00;18.13;56.78
22917;DHT22;11624;53.250;7.456;2023-04-23T07:42:28;18.25;56.76
22917;DHT22;11624;53.250;7.456;2023-04-23T07:44:56;18.34;56.26
22917;DHT22;11624;53.250;7.456;2023-04-23T07:47:25;18.28;55.58
22917;DHT22;11624;53.250;7.456;2023-04-23T07:49:54;18.33;55.15
22917;DHT22;11624;53.250;7.456;2023-04-23T07:52:22;18.28;54.53
22917;DHT22;11624;53.250;7.456;2023-04-23T07:54:50;18.43;55.40
22917;DHT22;11624;53.250;7.456;2023-04-23T07:57:18;18.59;55.10
22917;DHT22;11624;53.250;7.456;2023-04-23T07:59:46;18.88;55.14
22917;DHT22;11624;53.250;7.456;2023-04-23T08:02:14;19.05;54.18
22917;DHT22;11624;53.250;7.456;2023-04-23T08:04:45;19.21;54.01
22917;DHT22;11624;53.250;7.456;2023-04-23T08:07:14;19.33;52.75
22917;DHT22;11624;53.250;7.456;2023-04-23T08:09:45;19.28;51.14
22917;DHT22;11624;53.250;7.456;2023-04-23T08:12:17;19.14;51.82
22917;DHT22;11624;53.250;7.456;2023-04-23T08:14:46;19.29;51.79
22917;DHT22;11624;53.250;7.456;2023-04-23T08:17:17;19.53;52.04
22917;DHT22;11624;53.250;7.456;2023-04-23T08:19:46;19.77;51.26
22917;DHT22;11624;53.250;7.456;2023-04-23T08:22:15;19.88;49.42
22917;DHT22;11624;53.250;7.456;2023-04-23T08:24:43;20.02;48.98
22917;DHT22;11624;53.250;7.456;2023-04-23T08:27:12;20.24;48.61
22917;DHT22;11624;53.250;7.456;2023-04-23T08:29:40;20.47;47.83
22917;DHT22;11624;53.250;7.456;2023-04-23T08:32:08;20.33;47.06
22917;DHT22;11624;53.250;7.456;2023-04-23T08:34:36;20.34;48.21
22917;DHT22;11624;53.250;7.456;2023-04-23T08:37:06;20.56;48.05
22917;DHT22;11624;53.250;7.456;2023-04-23T08:39:42;20.78;47.20
22917;DHT22;11624;53.250;7.456;2023-04-23T08:42:21;21.05;46.06
22917;DHT22;11624;53.250;7.456;2023-04-23T08:44:50;20.95;45.74
22917;DHT22;11624;53.250;7.456;2023-04-23T08:47:21;21.13;47.27
22917;DHT22;11624;53.250;7.456;2023-04-23T08:49:53;21.29;46.78
22917;DHT22;11624;53.250;7.456;2023-04-23T08:52:24;21.58;45.12
22917;DHT22;11624;53.250;7.456;2023-04-23T08:54:53;21.51;43.51
22917;DHT22;11624;53.250;7.456;2023-04-23T08:57:25;21.53;44.70
22917;DHT22;11624;53.250;7.456;2023-04-23T08:59:54;21.66;44.22
22917;DHT22;11624;53.250;7.456;2023-04-23T09:02:23;21.65;43.92
22917;DHT22;11624;53.250;7.456;2023-04-23T09:04:51;21.68;44.14
22917;DHT22;11624;53.250;7.456;2023-04-23T09:07:23;21.80;44.16
22917;DHT22;11624;53.250;7.456;2023-04-23T09:09:53;21.82;44.22
22917;DHT22;11624;53.250;7.456;2023-04-23T09:12:22;22.09;43.89
22917;DHT22;11624;53.250;7.456;2023-04-23T09:14:50;22.37;43.29
22917;DHT22;11624;53.250;7.456;2023-04-23T09:17:18;22.72;43.96
22917;DHT22;11624;53.250;7.456;2023-04-23T09:19:49;23.14;41.68
22917;DHT22;11624;53.250;7.456;2023-04-23T09:22:40;23.12;41.04
22917;DHT22;11624;53.250;7.456;2023-04-23T09:25:13;23.15;41.69
22917;DHT22;11624;53.250;7.456;2023-04-23T09:27:42;23.17;41.72
22917;DHT22;11624;53.250;7.456;2023-04-23T09:30:11;23.26;40.71
22917;DHT22;11624;53.250;7.456;2023-04-23T09:32:40;23.06;41.20
22917;DHT22;11624;53.250;7.456;2023-04-23T09:35:10;23.00;41.21
22917;DHT22;11624;53.250;7.456;2023-04-23T09:37:42;22.99;41.73
22917;DHT22;11624;53.250;7.456;2023-04-23T09:40:15;22.96;41.53
22917;DHT22;11624;53.250;7.456;2023-04-23T09:42:47;22.76;41.60
22917;DHT22;11624;53.250;7.456;2023-04-23T09:45:16;22.57;42.34
22917;DHT22;11624;53.250;7.456;2023-04-23T09:47:48;22.72;43.74
22917;DHT22;11624;53.250;7.456;2023-04-23T09:50:17;23.10;42.29
22917;DHT22;11624;53.250;7.456;2023-04-23T09:52:52;23.43;41.08
22917;DHT22;11624;53.250;7.456;2023-04-23T09:55:27;23.40;40.33
22917;DHT22;11624;53.250;7.456;2023-04-23T09:57:57;23.36;41.62
22917;DHT22;11624;53.250;7.456;2023-04-23T10:00:25;23.74;41.77
22917;DHT22;11624;53.250;7.456;2023-04-23T10:02:58;23.77;40.26
22917;DHT22;11624;53.250;7.456;2023-04-23T10:05:27;23.97;40.73
22917;DHT22;11624;53.250;7.456;2023-04-23T10:08:17;24.10;40.33
22917;DHT22;11624;53.250;7.456;2023-04-23T10:10:46;24.13;40.30
22917;DHT22;11624;53.250;7.456;2023-04-23T10:13:18;24.16;39.56
22917;DHT22;11624;53.250;7.456;2023-04-23T10:15:47;24.26;39.94
22917;DHT22;11624;53.250;7.456;2023-04-23T10:18:15;24.69;38.92
22917;DHT22;11624;53.250;7.456;2023-04-23T10:20:44;24.74;37.83
22917;DHT22;11624;53.250;7.456;2023-04-23T10:23:12;24.87;38.17
22917;DHT22;11624;53.250;7.456;2023-04-23T10:25:42;25.05;38.72
22917;DHT22;11624;53.250;7.456;2023-04-23T10:28:11;25.18;38.06
22917;DHT22;11624;53.250;7.456;2023-04-23T10:30:41;25.62;38.05
22917;DHT22;11624;53.250;7.456;2023-04-23T10:33:10;25.56;35.62
22917;DHT22;11624;53.250;7.456;2023-04-23T10:35:56;25.44;36.66
22917;DHT22;11624;53.250;7.456;2023-04-23T10:38:25;25.67;36.15
22917;DHT22;11624;53.250;7.456;2023-04-23T10:40:57;25.71;35.74
22917;DHT22;11624;53.250;7.456;2023-04-23T10:43:26;25.88;35.63
22917;DHT22;11624;53.250;7.456;2023-04-23T10:45:54;25.73;35.60
22917;DHT22;11624;53.250;7.456;2023-04-23T10:48:22;25.62;35.74
22917;DHT22;11624;53.250;7.456;2023-04-23T10:50:56;25.35;35.77
22917;DHT22;11624;53.250;7.456;2023-04-23T10:53:45;24.79;37.27
22917;DHT22;11624;53.250;7.456;2023-04-23T10:56:14;25.08;37.79
22917;DHT22;11624;53.250;7.456;2023-04-23T10:58:49;25.47;37.27
22917;DHT22;11624;53.250;7.456;2023-04-23T11:01:17;25.50;35.72
22917;DHT22;11624;53.250;7.456;2023-04-23T11:03:47;25.21;35.89
22917;DHT22;11624;53.250;7.456;2023-04-23T11:09:29;26.11;34.68
22917;DHT22;11624;53.250;7.456;2023-04-23T11:12:00;25.73;34.42
22917;DHT22;11624;53.250;7.456;2023-04-23T11:14:36;25.81;34.76
22917;DHT22;11624;53.250;7.456;2023-04-23T11:17:10;26.02;35.59
22917;DHT22;11624;53.250;7.456;2023-04-23T11:19:39;26.53;34.02
22917;DHT22;11624;53.250;7.456;2023-04-23T11:22:12;26.81;33.22
22917;DHT22;11624;53.250;7.456;2023-04-23T11:24:42;27.15;33.38
22917;DHT22;11624;53.250;7.456;2023-04-23T11:27:17;27.16;32.32
22917;DHT22;11624;53.250;7.456;2023-04-23T11:29:46;26.64;31.79
22917;DHT22;11624;53.250;7.456;2023-04-23T11:32:15;26.72;33.55
22917;DHT22;11624;53.250;7.456;2023-04-23T11:34:46;27.12;31.54
22917;DHT22;11624;53.250;7.456;2023-04-23T11:37:17;27.37;31.36
22917;DHT22;11624;53.250;7.456;2023-04-23T11:39:46;27.80;31.10
22917;DHT22;11624;53.250;7.456;2023-04-23T11:42:16;27.90;31.44
22917;DHT22;11624;53.250;7.456;2023-04-23T11:44:47;28.54;29.45
22917;DHT22;11624;53.250;7.456;2023-04-23T11:47:15;28.72;28.66
22917;DHT22;11624;53.250;7.456;2023-04-23T11:49:44;28.62;28.83
22917;DHT22;11624;53.250;7.456;2023-04-23T11:52:13;28.34;29.12
22917;DHT22;11624;53.250;7.456;2023-04-23T11:54:41;27.74;29.51
22917;DHT22;11624;53.250;7.456;2023-04-23T11:57:09;27.41;29.42
22917;DHT22;11624;53.250;7.456;2023-04-23T11:59:40;27.07;29.53
22917;DHT22;11624;53.250;7.456;2023-04-23T12:02:10;26.97;30.82
22917;DHT22;11624;53.250;7.456;2023-04-23T12:04:39;26.51;31.28
22917;DHT22;11624;53.250;7.456;2023-04-23T12:07:07;26.28;31.86
22917;DHT22;11624;53.250;7.456;2023-04-23T12:09:51;26.62;30.40
22917;DHT22;11624;53.250;7.456;2023-04-23T12:12:31;27.13;30.33
22917;DHT22;11624;53.250;7.456;2023-04-23T12:15:03;27.52;30.15
22917;DHT22;11624;53.250;7.456;2023-04-23T12:17:33;27.79;28.40
22917;DHT22;11624;53.250;7.456;2023-04-23T12:20:03;27.93;28.24
22917;DHT22;11624;53.250;7.456;2023-04-23T12:22:32;28.11;27.35
22917;DHT22;11624;53.250;7.456;2023-04-23T12:25:04;27.53;28.01
22917;DHT22;11624;53.250;7.456;2023-04-23T12:27:38;26.77;28.94
22917;DHT22;11624;53.250;7.456;2023-04-23T12:30:08;26.34;29.95
22917;DHT22;11624;53.250;7.456;2023-04-23T12:32:40;26.57;30.77
22917;DHT22;11624;53.250;7.456;2023-04-23T12:35:08;26.83;29.19
22917;DHT22;11624;53.250;7.456;2023-04-23T12:37:37;26.92;28.87
22917;DHT22;11624;53.250;7.456;2023-04-23T12:40:06;26.71;28.74
22917;DHT22;11624;53.250;7.456;2023-04-23T12:42:35;26.87;28.82
22917;DHT22;11624;53.250;7.456;2023-04-23T12:45:08;27.34;27.41
22917;DHT22;11624;53.250;7.456;2023-04-23T12:47:36;27.56;27.84
22917;DHT22;11624;53.250;7.456;2023-04-23T12:50:07;27.53;26.63
22917;DHT22;11624;53.250;7.456;2023-04-23T12:52:35;27.37;27.15
22917;DHT22;11624;53.250;7.456;2023-04-23T12:55:04;27.06;26.64
22917;DHT22;11624;53.250;7.456;2023-04-23T12:57:32;26.84;27.04
22917;DHT22;11624;53.250;7.456;2023-04-23T13:00:00;26.36;27.73
22917;DHT22;11624;53.250;7.456;2023-04-23T13:02:29;26.04;28.33
22917;DHT22;11624;53.250;7.456;2023-04-23T13:04:57;26.23;28.76
22917;DHT22;11624;53.250;7.456;2023-04-23T13:07:28;26.56;28.60
22917;DHT22;11624;53.250;7.456;2023-04-23T13:09:56;26.95;28.10
22917;DHT22;11624;53.250;7.456;2023-04-23T13:12:25;27.35;27.00
22917;DHT22;11624;53.250;7.456;2023-04-23T13:14:53;27.85;26.26
22917;DHT22;11624;53.250;7.456;2023-04-23T13:17:22;28.01;25.75
22917;DHT22;11624;53.250;7.456;2023-04-23T13:19:52;28.08;24.95
22917;DHT22;11624;53.250;7.456;2023-04-23T13:22:20;27.55;25.15
22917;DHT22;11624;53.250;7.456;2023-04-23T13:24:55;27.50;25.27
22917;DHT22;11624;53.250;7.456;2023-04-23T13:27:24;27.37;25.47
22917;DHT22;11624;53.250;7.456;2023-04-23T13:29:53;27.22;26.11
22917;DHT22;11624;53.250;7.456;2023-04-23T13:32:21;27.24;26.27
22917;DHT22;11624;53.250;7.456;2023-04-23T13:34:53;27.37;26.36
22917;DHT22;11624;53.250;7.456;2023-04-23T13:37:21;27.45;25.65
22917;DHT22;11624;53.250;7.456;2023-04-23T13:39:50;27.31;26.20
22917;DHT22;11624;53.250;7.456;2023-04-23T13:42:19;27.17;25.90
22917;DHT22;11624;53.250;7.456;2023-04-23T13:44:47;26.89;25.39
22917;DHT22;11624;53.250;7.456;2023-04-23T13:47:15;26.80;25.91
22917;DHT22;11624;53.250;7.456;2023-04-23T13:49:43;26.60;26.85
22917;DHT22;11624;53.250;7.456;2023-04-23T13:52:11;26.52;27.20
22917;DHT22;11624;53.250;7.456;2023-04-23T13:54:39;26.34;27.01
22917;DHT22;11624;53.250;7.456;2023-04-23T13:57:08;26.22;27.07
22917;DHT22;11624;53.250;7.456;2023-04-23T13:59:37;26.27;27.71
22917;DHT22;11624;53.250;7.456;2023-04-23T14:02:06;26.43;27.57
22917;DHT22;11624;53.250;7.456;2023-04-23T14:04:34;26.31;27.00
22917;DHT22;11624;53.250;7.456;2023-04-23T14:07:02;26.09;27.55
22917;DHT22;11624;53.250;7.456;2023-04-23T14:09:30;26.04;27.57
22917;DHT22;11624;53.250;7.456;2023-04-23T14:11:58;25.92;27.58
22917;DHT22;11624;53.250;7.456;2023-04-23T14:14:27;26.02;28.33
22917;DHT22;11624;53.250;7.456;2023-04-23T14:16:56;26.02;27.39
22917;DHT22;11624;53.250;7.456;2023-04-23T14:19:24;26.04;27.31
22917;DHT22;11624;53.250;7.456;2023-04-23T14:21:52;25.97;27.36
22917;DHT22;11624;53.250;7.456;2023-04-23T14:24:22;25.97;26.64
22917;DHT22;11624;53.250;7.456;2023-04-23T14:26:52;25.96;26.87
22917;DHT22;11624;53.250;7.456;2023-04-23T14:29:23;25.99;26.76
22917;DHT22;11624;53.250;7.456;2023-04-23T14:31:52;26.16;26.52
22917;DHT22;11624;53.250;7.456;2023-04-23T14:34:21;26.15;26.18
22917;DHT22;11624;53.250;7.456;2023-04-23T14:36:50;26.15;26.75
22917;DHT22;11624;53.250;7.456;2023-04-23T14:39:20;26.35;26.78
22917;DHT22;11624;53.250;7.456;2023-04-23T14:41:48;26.39;26.68
22917;DHT22;11624;53.250;7.456;2023-04-23T14:44:17;26.42;26.59
22917;DHT22;11624;53.250;7.456;2023-04-23T14:46:45;26.57;27.04
22917;DHT22;11624;53.250;7.456;2023-04-23T14:49:15;26.58;26.10
22917;DHT22;11624;53.250;7.456;2023-04-23T14:51:45;26.61;26.60
22917;DHT22;11624;53.250;7.456;2023-04-23T14:54:13;26.51;24.97
22917;DHT22;11624;53.250;7.456;2023-04-23T14:56:41;26.37;25.49
22917;DHT22;11624;53.250;7.456;2023-04-23T14:59:09;26.56;25.46
22917;DHT22;11624;53.250;7.456;2023-04-23T15:01:37;26.57;24.20
22917;DHT22;11624;53.250;7.456;2023-04-23T15:04:05;26.45;24.64
22917;DHT22;11624;53.250;7.456;2023-04-23T15:06:33;26.46;24.88
22917;DHT22;11624;53.250;7.456;2023-04-23T15:09:03;26.39;24.36
22917;DHT22;11624;53.250;7.456;2023-04-23T15:11:32;26.78;24.74
22917;DHT22;11624;53.250;7.456;2023-04-23T15:14:01;26.96;24.12
22917;DHT22;11624;53.250;7.456;2023-04-23T15:16:34;26.92;23.73
22917;DHT22;11624;53.250;7.456;2023-04-23T15:19:13;26.80;24.01
22917;DHT22;11624;53.250;7.456;2023-04-23T15:21:44;26.94;24.03
22917;DHT22;11624;53.250;7.456;2023-04-23T15:24:14;27.09;24.00
22917;DHT22;11624;53.250;7.456;2023-04-23T15:26:44;27.06;23.79
22917;DHT22;11624;53.250;7.456;2023-04-23T15:29:13;26.87;24.25
22917;DHT22;11624;53.250;7.456;2023-04-23T15:31:41;26.55;24.98
22917;DHT22;11624;53.250;7.456;2023-04-23T15:34:10;26.48;25.27
22917;DHT22;11624;53.250;7.456;2023-04-23T15:36:38;26.24;25.06
22917;DHT22;11624;53.250;7.456;2023-04-23T15:39:06;26.17;25.27
22917;DHT22;11624;53.250;7.456;2023-04-23T15:41:36;26.17;25.49
22917;DHT22;11624;53.250;7.456;2023-04-23T15:44:08;26.19;25.52
22917;DHT22;11624;53.250;7.456;2023-04-23T15:46:38;26.27;25.59
22917;DHT22;11624;53.250;7.456;2023-04-23T15:49:07;26.27;25.20